Time;durP1;ratioP1;P1;durP2;ratioP2;P2;SDS_P1;SDS_P2;PMS_P1;PMS_P2;Temp;Humidity;BMP_temperature;BMP_pressure;BME280_temperature;BME280_humidity;BME280_pressure;Samples;Min_cycle;Max_cycle;Signal;HPM_P1;HPM_P2
2022/04/05 00:07:24;;;;;;;11.20;7.13;;;;;;;6.91;61.65;99957.91;20954111;28;20049;-66
2022/04/05 00:17:25;;;;;;;11.90;7.10;;;;;;;6.94;61.34;99945.69;20950239;28;20477;-66
2022/04/05 00:27:27;;;;;;;11.98;7.38;;;;;;;6.90;61.89;99920.59;20948590;28;20049;-66
2022/04/05 00:37:28;;;;;;;14.30;8.02;;;;;;;6.87;61.10;99918.00;20947629;28;20060;-66
2022/04/05 00:47:30;;;;;;;13.32;7.15;;;;;;;6.94;61.01;99922.28;20947795;28;20048;-66
2022/04/05 00:57:34;;;;;;;13.23;6.75;;;;;;;6.89;60.90;99915.38;20948049;28;20141;-66
2022/04/05 01:07:40;;;;;;;12.27;7.20;;;;;;;6.85;61.59;99918.88;20946447;28;20052;-66
2022/04/05 01:17:41;;;;;;;11.75;7.28;;;;;;;6.85;61.83;99914.56;20942146;28;20061;-66
2022/04/05 01:28:00;;;;;;;12.23;6.90;;;;;;;6.90;61.61;99906.72;20944071;28;20045;-66
2022/04/05 01:38:06;;;;;;;16.92;6.65;;;;;;;6.85;62.26;99898.97;20943069;28;20052;-66
2022/04/05 01:48:08;;;;;;;14.55;6.78;;;;;;;6.93;61.42;99881.50;20939968;28;20140;-66
2022/04/05 01:58:09;;;;;;;14.70;6.93;;;;;;;6.87;60.64;99871.19;20941677;28;20057;-68
2022/04/05 02:08:12;;;;;;;12.05;6.40;;;;;;;6.80;60.63;99874.69;20936098;28;20106;-67
2022/04/05 02:18:13;;;;;;;12.73;6.43;;;;;;;6.79;62.48;99879.91;20941660;28;20048;-67
2022/04/05 02:39:37;;;;;;;13.85;6.63;;;;;;;6.59;65.68;99887.88;20931122;28;20053;-66
2022/04/05 02:49:38;;;;;;;12.45;7.03;;;;;;;6.50;71.43;99890.56;20939847;28;20448;-66
2022/04/05 02:59:40;;;;;;;12.43;6.80;;;;;;;6.43;72.85;99890.63;20938221;28;20060;-67
2022/04/05 03:09:41;;;;;;;14.60;7.10;;;;;;;6.29;76.62;99891.59;20937863;28;20055;-66
2022/04/05 03:19:43;;;;;;;10.70;7.13;;;;;;;6.19;79.09;99903.78;20938938;28;20134;-66
2022/04/05 03:29:44;;;;;;;13.93;7.57;;;;;;;5.98;86.17;99902.13;20939274;28;20474;-67
2022/04/05 03:39:46;;;;;;;12.65;7.45;;;;;;;5.72;89.69;99901.38;20952090;28;20056;-67
2022/04/05 03:49:47;;;;;;;15.88;8.15;;;;;;;5.57;94.98;99904.91;20953924;28;20673;-67
2022/04/05 03:59:49;;;;;;;17.95;8.70;;;;;;;5.57;96.36;99891.91;20952194;28;20049;-67
2022/04/05 04:09:51;;;;;;;14.10;8.65;;;;;;;5.26;98.56;99878.16;20951449;28;20048;-68
2022/04/05 04:19:53;;;;;;;14.10;8.52;;;;;;;5.25;98.55;99873.84;20950895;28;20051;-67
2022/04/05 04:29:54;;;;;;;14.10;8.38;;;;;;;5.20;99.82;99889.41;20949185;28;20049;-67
2022/04/05 04:39:56;;;;;;;14.00;8.88;;;;;;;5.29;99.65;99873.81;20949410;28;20418;-67
2022/04/05 04:49:58;;;;;;;14.82;8.40;;;;;;;5.24;99.39;99895.47;20951586;28;20482;-67
2022/04/05 04:59:59;;;;;;;14.45;9.02;;;;;;;5.26;100.00;99904.97;20951505;28;20399;-66
2022/04/05 05:10:01;;;;;;;17.60;9.23;;;;;;;5.23;100.00;99907.59;20948760;28;20044;-68
2022/04/05 05:20:04;;;;;;;12.85;8.82;;;;;;;5.17;100.00;99910.16;20946841;28;20054;-65
2022/04/05 05:30:09;;;;;;;15.57;8.88;;;;;;;5.19;100.00;99912.78;20945929;28;20049;-67
2022/04/05 05:40:13;;;;;;;14.40;8.48;;;;;;;5.17;100.00;99924.88;20943826;28;20044;-67
2022/04/05 05:50:15;;;;;;;13.35;9.00;;;;;;;5.15;100.00;99917.09;20943402;28;20453;-66
2022/04/05 06:00:23;;;;;;;16.45;9.32;;;;;;;5.26;100.00;99946.50;20941877;28;20052;-67
2022/04/05 06:10:25;;;;;;;17.73;9.27;;;;;;;5.21;100.00;99950.81;20938637;28;20048;-66
2022/04/05 06:20:28;;;;;;;15.02;9.77;;;;;;;5.19;100.00;99949.97;20940945;28;20052;-66
2022/04/05 06:30:32;;;;;;;17.02;9.50;;;;;;;5.26;100.00;99948.22;20940983;28;20045;-66
2022/04/05 06:40:34;;;;;;;;;;;;;;;5.43;100.00;99927.44;20916016;28;20055;-67
2022/04/05 06:50:36;;;;;;;18.92;10.07;;;;;;;5.44;100.00;99932.63;20873663;28;19921;-66
2022/04/05 07:00:38;;;;;;;24.77;12.57;;;;;;;5.49;99.88;99956.84;20873226;28;20049;-66
2022/04/05 07:10:40;;;;;;;16.80;9.10;;;;;;;5.63;98.80;99944.69;20876755;28;20041;-66
2022/04/05 07:20:41;;;;;;;18.17;9.27;;;;;;;5.53;99.29;99955.97;20915192;28;20048;-66
2022/04/05 07:30:43;;;;;;;17.50;10.13;;;;;;;5.44;100.00;99956.00;20936141;28;20037;-67
2022/04/05 07:40:52;;;;;;;15.73;9.55;;;;;;;5.54;98.44;99955.09;20947227;28;20502;-66
2022/04/05 07:50:54;;;;;;;18.20;9.63;;;;;;;5.70;96.12;99948.16;20940477;28;20041;-65
2022/04/05 08:00:56;;;;;;;17.85;8.57;;;;;;;5.89;93.22;99955.00;20944937;28;20497;-66
2022/04/05 08:10:58;;;;;;;18.48;8.70;;;;;;;6.02;91.27;99954.97;20944666;28;20139;-66
2022/04/05 08:20:59;;;;;;;16.50;9.55;;;;;;;6.16;90.42;99951.44;20946304;28;20057;-66
2022/04/05 08:31:01;;;;;;;16.73;8.23;;;;;;;6.30;89.11;99961.75;20937510;28;20098;-68
2022/04/05 08:41:05;;;;;;;18.02;9.43;;;;;;;6.50;87.33;99973.78;20941844;28;20143;-67
2022/04/05 08:51:07;;;;;;;13.83;8.43;;;;;;;6.51;88.65;99976.38;20941003;28;20102;-68
2022/04/05 09:01:09;;;;;;;13.85;7.72;;;;;;;6.64;86.63;99978.03;20939571;28;20052;-66
2022/04/05 09:11:12;;;;;;;15.93;8.13;;;;;;;6.99;85.68;99970.84;20933805;28;20075;-66
2022/04/05 09:21:14;;;;;;;12.85;7.53;;;;;;;6.90;87.75;99980.47;20935756;28;20052;-66
2022/04/05 09:31:19;;;;;;;18.30;8.55;;;;;;;7.04;87.35;99969.06;20936177;28;20040;-66
2022/04/05 09:41:22;;;;;;;15.65;8.75;;;;;;;7.20;87.45;99979.34;20936758;28;20052;-66
2022/04/05 09:51:24;;;;;;;13.85;8.10;;;;;;;7.26;87.61;99972.34;20934996;28;20044;-67
2022/04/05 10:01:27;;;;;;;15.48;8.73;;;;;;;7.37;87.35;99970.50;20933104;28;20053;-66
2022/04/05 10:11:30;;;;;;;17.45;8.85;;;;;;;7.39;87.98;99980.03;20938732;28;20060;-66
2022/04/05 10:21:35;;;;;;;15.00;8.75;;;;;;;7.59;88.72;99976.38;20934183;28;20053;-66
2022/04/05 10:31:50;;;;;;;16.63;8.97;;;;;;;7.61;89.07;99980.66;20932323;28;20056;-66
2022/04/05 10:42:20;;;;;;;15.63;9.55;;;;;;;7.69;89.64;99957.16;20932099;28;20515;-66
2022/04/05 10:52:27;;;;;;;15.32;9.43;;;;;;;7.63;91.89;99968.50;20931473;28;20091;-66
2022/04/05 11:02:30;;;;;;;17.08;9.40;;;;;;;7.70;92.14;99953.66;20931718;28;20051;-66
2022/04/05 11:12:33;;;;;;;15.82;9.32;;;;;;;7.67;91.90;99958.91;20927765;28;20053;-67
2022/04/05 11:22:38;;;;;;;17.60;9.47;;;;;;;7.85;91.06;99957.81;20932665;28;20078;-67
2022/04/05 11:33:09;;;;;;;14.65;9.13;;;;;;;7.89;91.05;99960.38;20931030;28;20049;-67
2022/04/05 11:43:24;;;;;;;17.50;8.85;;;;;;;8.03;90.15;99956.75;20928732;28;20059;-67
2022/04/05 11:53:28;;;;;;;13.98;8.32;;;;;;;7.85;94.17;99979.53;20932849;28;20143;-67
2022/04/05 12:03:43;;;;;;;14.52;9.15;;;;;;;7.81;96.28;99980.47;20944262;28;20109;-66
2022/04/05 12:14:02;;;;;;;15.07;9.43;;;;;;;7.88;97.11;99976.91;20959571;23;20142;-67
2022/04/05 12:24:04;;;;;;;24.48;13.93;;;;;;;8.06;97.25;99974.97;20942851;28;20566;-66
2022/04/05 12:34:11;;;;;;;17.70;10.00;;;;;;;8.22;97.27;99966.06;20942176;28;20118;-66
2022/04/05 12:44:15;;;;;;;13.52;8.10;;;;;;;8.43;96.04;99951.88;20940064;28;20053;-66
2022/04/05 12:54:33;;;;;;;12.50;7.93;;;;;;;8.45;96.46;99940.56;20934603;28;20547;-66
2022/04/05 13:04:34;;;;;;;12.88;7.65;;;;;;;8.68;96.39;99928.91;20936522;28;20040;-67
2022/04/05 13:14:36;;;;;;;10.43;6.82;;;;;;;8.88;94.54;99924.22;20936590;28;20059;-66
2022/04/05 13:24:40;;;;;;;10.55;6.82;;;;;;;9.13;93.67;99916.84;20933362;28;20045;-66
2022/04/05 13:34:44;;;;;;;12.53;7.13;;;;;;;9.35;92.71;99909.50;20936193;28;20052;-67
2022/04/05 13:44:46;;;;;;;11.02;6.30;;;;;;;9.57;90.95;99899.47;20933700;28;20082;-67
2022/04/05 13:54:47;;;;;;;11.65;6.20;;;;;;;9.77;89.97;99893.84;20935866;28;20049;-67
2022/04/05 14:04:49;;;;;;;9.82;5.93;;;;;;;9.69;90.85;99878.31;20934074;28;20464;-66
2022/04/05 14:14:51;;;;;;;11.35;6.55;;;;;;;9.70;91.11;99884.41;20937115;28;20040;-66
2022/04/05 14:24:52;;;;;;;12.50;6.53;;;;;;;9.52;92.20;99869.94;20934729;28;20049;-66
2022/04/05 14:34:54;;;;;;;17.52;8.07;;;;;;;9.66;91.99;99859.22;20932444;28;20662;-66
2022/04/05 14:45:14;;;;;;;14.18;7.60;;;;;;;9.61;91.99;99854.09;20930754;28;20091;-67
2022/04/05 14:55:26;;;;;;;20.20;8.73;;;;;;;9.74;91.82;99841.63;20933499;28;20067;-67
2022/04/05 15:05:28;;;;;;;16.05;7.78;;;;;;;9.77;91.90;99850.28;20931920;28;20048;-67
2022/04/05 15:15:29;;;;;;;18.05;10.43;;;;;;;9.83;91.47;99849.28;20929933;28;20103;-67
2022/04/05 15:25:31;;;;;;;13.07;7.00;;;;;;;9.78;90.44;99835.44;20932247;28;20084;-67
2022/04/05 15:35:33;;;;;;;11.80;6.82;;;;;;;9.93;89.85;99836.88;20945170;28;20392;-66
2022/04/05 15:45:35;;;;;;;13.52;7.32;;;;;;;10.01;89.79;99835.81;20945816;28;20094;-67
2022/04/05 15:55:36;;;;;;;11.10;6.10;;;;;;;9.85;91.37;99826.56;20944752;28;20057;-68
2022/04/05 16:05:38;;;;;;;9.95;6.35;;;;;;;9.96;91.07;99827.19;20935000;28;20056;-68
2022/04/05 16:15:40;;;;;;;11.43;6.95;;;;;;;9.93;90.90;99824.66;20904630;28;20065;-66
2022/04/05 16:25:42;;;;;;;13.98;6.72;;;;;;;9.87;92.26;99814.34;20887246;28;20061;-66
2022/04/05 16:35:43;;;;;;;10.30;7.03;;;;;;;9.98;90.54;99811.47;20888691;28;20064;-67
2022/04/05 16:45:45;;;;;;;13.95;7.47;;;;;;;9.94;91.70;99800.22;20885686;28;20066;-66
2022/04/05 16:55:49;;;;;;;13.27;7.53;;;;;;;9.98;90.76;99801.00;20881272;28;20572;-67
2022/04/05 17:05:51;;;;;;;13.70;7.20;;;;;;;10.05;90.77;99817.41;20880146;28;20410;-65
2022/04/05 17:15:52;;;;;;;10.57;6.80;;;;;;;9.93;91.79;99829.88;20881661;28;20049;-65
2022/04/05 17:25:54;;;;;;;10.80;6.80;;;;;;;9.75;93.86;99845.97;20877990;28;20052;-65
2022/04/05 17:35:55;;;;;;;12.45;7.35;;;;;;;9.75;94.01;99852.06;20882951;28;20056;-65
2022/04/05 17:45:57;;;;;;;10.75;6.70;;;;;;;9.69;95.27;99840.88;20879611;28;20060;-65
2022/04/05 17:55:59;;;;;;;15.05;7.13;;;;;;;9.64;95.49;99850.56;20880386;28;20057;-64
2022/04/05 18:06:00;;;;;;;11.98;7.22;;;;;;;9.57;96.98;99852.44;20881682;28;20580;-64
2022/04/05 18:16:06;;;;;;;13.52;8.10;;;;;;;9.57;97.57;99841.13;20878741;28;20081;-64
2022/04/05 18:26:10;;;;;;;13.40;8.68;;;;;;;9.52;98.92;99859.50;20877829;28;20056;-66
2022/04/05 18:36:12;;;;;;;16.83;10.13;;;;;;;9.48;99.59;99879.59;20877566;28;20056;-66
2022/04/05 18:46:14;;;;;;;17.77;10.48;;;;;;;9.56;99.07;99886.44;20875714;28;20045;-66
2022/04/05 18:56:16;;;;;;;17.77;11.23;;;;;;;9.52;99.17;99901.31;20877442;28;20490;-63
2022/04/05 19:06:21;;;;;;;18.75;10.32;;;;;;;9.49;99.99;99901.41;20882812;28;20060;-66
2022/04/05 19:16:23;;;;;;;;;;;;;;;9.48;100.00;99917.94;20888315;28;20056;-67
2022/04/05 19:26:25;;;;;;;18.00;10.80;;;;;;;9.47;100.00;99911.84;20887399;28;19974;-64
2022/04/05 19:36:27;;;;;;;17.98;11.20;;;;;;;9.45;100.00;99911.03;20882349;28;20057;-64
2022/04/05 19:46:29;;;;;;;20.55;11.40;;;;;;;9.43;100.00;99907.56;20881446;28;20057;-64
2022/04/05 19:56:32;;;;;;;17.98;11.27;;;;;;;9.47;100.00;99898.78;20883269;28;20056;-65
2022/04/05 20:06:34;;;;;;;19.98;10.85;;;;;;;9.50;100.00;99901.34;20883897;28;20045;-64
2022/04/05 20:26:56;;;;;;;18.67;10.30;;;;;;;9.47;100.00;99883.09;20887783;28;20134;-65
2022/04/05 20:36:57;;;;;;;15.70;9.65;;;;;;;9.48;100.00;99879.59;20884348;28;20071;-65
2022/04/05 20:46:59;;;;;;;14.18;9.30;;;;;;;9.64;100.00;99863.63;20889047;28;20053;-64
2022/04/05 20:57:01;;;;;;;15.15;9.60;;;;;;;9.67;100.00;99860.94;20883868;28;20438;-64
2022/04/05 21:07:04;;;;;;;15.43;8.57;;;;;;;9.60;100.00;99854.13;20884356;28;20689;-64
2022/04/05 21:17:07;;;;;;;15.10;8.55;;;;;;;9.59;100.00;99849.81;20882458;28;20064;-64
2022/04/05 21:27:09;;;;;;;16.15;8.85;;;;;;;9.59;100.00;99839.34;20916129;28;20191;-64
2022/04/05 21:37:13;;;;;;;16.58;10.32;;;;;;;9.65;100.00;99847.06;20936266;28;20089;-63
2022/04/05 21:47:15;;;;;;;18.57;9.67;;;;;;;9.65;100.00;99827.00;20935874;28;20431;-64
2022/04/05 21:57:17;;;;;;;16.25;9.75;;;;;;;9.59;100.00;99823.66;20934349;28;20052;-63
2022/04/05 22:07:18;;;;;;;12.85;8.93;;;;;;;9.55;100.00;99817.63;20936482;28;20056;-64
2022/04/05 22:17:20;;;;;;;14.50;9.15;;;;;;;9.61;100.00;99808.81;20930069;28;20060;-65
2022/04/05 22:27:22;;;;;;;14.57;8.93;;;;;;;9.59;100.00;99802.75;20937952;28;20110;-65
2022/04/05 22:37:23;;;;;;;13.60;9.30;;;;;;;9.63;100.00;99802.66;20940534;28;20482;-65
2022/04/05 22:47:25;;;;;;;15.95;9.73;;;;;;;9.67;100.00;99812.13;20937330;28;20437;-64
2022/04/05 22:57:27;;;;;;;12.00;8.20;;;;;;;9.61;100.00;99814.03;20938709;28;20071;-64
2022/04/05 23:07:28;;;;;;;16.45;9.25;;;;;;;9.68;100.00;99815.63;20938892;28;20110;-64
2022/04/05 23:17:30;;;;;;;12.48;7.90;;;;;;;9.71;100.00;99813.78;20934617;28;20103;-64
2022/04/05 23:27:31;;;;;;;13.02;8.00;;;;;;;9.68;100.00;99805.19;20938598;28;20479;-64
2022/04/05 23:37:33;;;;;;;11.52;7.72;;;;;;;9.70;100.00;99801.63;20937994;28;20048;-65
2022/04/05 23:47:34;;;;;;;11.95;7.78;;;;;;;9.76;100.00;99800.63;20937563;28;20052;-65
2022/04/05 23:57:36;;;;;;;11.52;7.88;;;;;;;9.72;100.00;99793.72;20952593;28;20440;-64
